Time;durP1;ratioP1;P1;durP2;ratioP2;P2;SDS_P1;SDS_P2;PMS_P1;PMS_P2;Temp;Humidity;BMP_temperature;BMP_pressure;BME280_temperature;BME280_humidity;BME280_pressure;Samples;Min_cycle;Max_cycle;Signal;HPM_P1;HPM_P2
2024/04/21 00:02:09;;;;;;;;;;;;;;;20.74;40.11;100158.88;103129;1289;62114;-78
2024/04/21 00:04:35;;;;;;;;;;;;;;;20.74;40.10;100160.86;103069;1289;62207;-79
2024/04/21 00:07:01;;;;;;;;;;;;;;;20.74;40.15;100161.59;103048;1295;62252;-79
2024/04/21 00:09:27;;;;;;;;;;;;;;;20.74;40.09;100163.73;103151;1289;62180;-78
2024/04/21 00:11:53;;;;;;;;;;;;;;;20.74;40.09;100164.64;103040;1289;62443;-78
2024/04/21 00:14:18;;;;;;;;;;;;;;;20.73;40.23;100165.34;103137;1289;62175;-78
2024/04/21 00:16:44;;;;;;;;;;;;;;;20.73;40.22;100167.34;102839;1292;62086;-80
2024/04/21 00:19:09;;;;;;;;;;;;;;;20.73;40.16;100168.41;103048;1289;62230;-78
2024/04/21 00:21:35;;;;;;;;;;;;;;;20.73;40.19;100173.62;102841;1294;63525;-79
2024/04/21 00:24:00;;;;;;;;;;;;;;;20.73;40.08;100177.16;103083;1289;62193;-80
2024/04/21 00:26:26;;;;;;;;;;;;;;;20.73;40.20;100176.63;103091;1289;62249;-81
2024/04/21 00:28:52;;;;;;;;;;;;;;;20.73;40.23;100180.75;103060;1289;62088;-78
2024/04/21 00:31:17;;;;;;;;;;;;;;;20.73;40.17;100182.36;103161;1294;62185;-78
2024/04/21 00:33:43;;;;;;;;;;;;;;;20.73;40.07;100182.90;103109;1289;62233;-80
2024/04/21 00:36:09;;;;;;;;;;;;;;;20.73;40.33;100187.38;103078;1293;63394;-79
2024/04/21 00:38:35;;;;;;;;;;;;;;;20.73;40.29;100188.80;103072;1289;63338;-79
2024/04/21 00:41:00;;;;;;;;;;;;;;;20.73;40.22;100187.76;103139;1293;62137;-79
2024/04/21 00:43:26;;;;;;;;;;;;;;;20.73;40.14;100189.03;103095;1289;62191;-79
2024/04/21 00:45:51;;;;;;;;;;;;;;;20.73;40.23;100192.05;103090;1294;63360;-79
2024/04/21 00:48:17;;;;;;;;;;;;;;;20.72;40.23;100193.52;102874;1289;62714;-78
2024/04/21 00:50:44;;;;;;;;;;;;;;;20.72;40.27;100190.49;103062;1289;62206;-79
2024/04/21 00:53:10;;;;;;;;;;;;;;;20.72;40.29;100196.20;103089;1289;62225;-79
2024/04/21 00:55:35;;;;;;;;;;;;;;;20.72;40.30;100193.52;103117;1294;63294;-78
2024/04/21 00:58:01;;;;;;;;;;;;;;;20.72;40.33;100191.02;103098;1291;63365;-78
2024/04/21 01:00:27;;;;;;;;;;;;;;;20.72;40.24;100188.70;103056;1289;63408;-79
2024/04/21 01:02:52;;;;;;;;;;;;;;;20.72;40.22;100188.72;103200;1294;63470;-78
2024/04/21 01:05:18;;;;;;;;;;;;;;;20.72;40.20;100187.14;103097;1289;62155;-79
2024/04/21 01:07:43;;;;;;;;;;;;;;;20.72;40.29;100192.48;103059;1295;62281;-77
2024/04/21 01:10:09;;;;;;;;;;;;;;;20.72;40.35;100195.15;103138;1289;62193;-80
2024/04/21 01:12:39;;;;;;;;;;;;;;;20.72;40.23;100195.52;102958;1294;62565;-79
2024/04/21 01:15:05;;;;;;;;;;;;;;;20.72;40.38;100197.50;102796;1297;62183;-79
2024/04/21 01:17:30;;;;;;;;;;;;;;;20.72;40.36;100191.77;103104;1292;62456;-78
2024/04/21 01:19:56;;;;;;;;;;;;;;;20.72;40.36;100186.76;103122;1289;62124;-78
2024/04/21 01:22:22;;;;;;;;;;;;;;;20.71;40.34;100185.01;103117;1294;62581;-78
2024/04/21 01:24:48;;;;;;;;;;;;;;;20.72;40.27;100180.68;103084;1289;62203;-77
2024/04/21 01:27:13;;;;;;;;;;;;;;;20.71;40.32;100182.87;103057;1294;63161;-78
2024/04/21 01:29:39;;;;;;;;;;;;;;;20.72;40.30;100186.06;103182;1293;72286;-78
2024/04/21 01:32:05;;;;;;;;;;;;;;;20.71;40.26;100184.30;103092;1289;62188;-79
2024/04/21 01:34:30;;;;;;;;;;;;;;;20.72;40.35;100186.61;103079;1289;62178;-80
2024/04/21 01:36:56;;;;;;;;;;;;;;;20.71;40.35;100186.09;103129;1290;62197;-80
2024/04/21 01:39:21;;;;;;;;;;;;;;;20.71;40.34;100187.52;103154;1294;63379;-78
2024/04/21 01:41:47;;;;;;;;;;;;;;;20.71;40.29;100193.11;103030;1289;72531;-79
2024/04/21 01:44:12;;;;;;;;;;;;;;;20.71;40.46;100194.70;103120;1289;62181;-79
2024/04/21 01:46:38;;;;;;;;;;;;;;;20.71;40.38;100191.67;103062;1292;62838;-78
2024/04/21 01:49:04;;;;;;;;;;;;;;;20.71;40.33;100194.89;103094;1289;62230;-79
2024/04/21 01:51:30;;;;;;;;;;;;;;;20.71;40.34;100197.04;103189;1289;62091;-78
2024/04/21 01:53:55;;;;;;;;;;;;;;;20.71;40.42;100198.66;103183;1293;62231;-78
2024/04/21 01:56:21;;;;;;;;;;;;;;;20.70;40.28;100201.17;103107;1293;75255;-78
2024/04/21 01:58:47;;;;;;;;;;;;;;;20.70;40.41;100200.82;103089;1294;63020;-78
2024/04/21 02:01:12;;;;;;;;;;;;;;;20.70;40.34;100201.38;103178;1289;63381;-78
2024/04/21 02:03:38;;;;;;;;;;;;;;;20.70;40.37;100200.11;102783;1297;62191;-78
2024/04/21 02:06:04;;;;;;;;;;;;;;;20.70;40.40;100199.58;103149;1295;62184;-78
2024/04/21 02:08:29;;;;;;;;;;;;;;;20.70;40.40;100201.02;103127;1294;74989;-80
2024/04/21 02:10:55;;;;;;;;;;;;;;;20.70;40.43;100201.91;103152;1294;63331;-78
2024/04/21 02:13:20;;;;;;;;;;;;;;;20.70;40.35;100206.57;103117;1294;62196;-80
2024/04/21 02:15:49;;;;;;;;;;;;;;;20.70;40.34;100205.36;103083;1289;62574;-78
2024/04/21 02:18:15;;;;;;;;;;;;;;;20.70;40.37;100207.67;103036;1289;62284;-78
2024/04/21 02:20:43;;;;;;;;;;;;;;;20.70;40.44;100208.21;103136;1289;62210;-79
2024/04/21 02:23:09;;;;;;;;;;;;;;;20.70;40.49;100206.95;103036;1289;62174;-79
2024/04/21 02:25:35;;;;;;;;;;;;;;;20.70;40.58;100206.23;102588;1294;700065;-78
2024/04/21 02:28:01;;;;;;;;;;;;;;;20.70;40.40;100203.77;103108;1289;63355;-78
2024/04/21 02:30:26;;;;;;;;;;;;;;;20.69;40.42;100205.38;103081;1289;63239;-79
2024/04/21 02:32:52;;;;;;;;;;;;;;;20.70;40.53;100208.38;103064;1289;62258;-79
2024/04/21 02:35:19;;;;;;;;;;;;;;;20.69;40.44;100210.04;103168;1289;62201;-78
2024/04/21 02:37:46;;;;;;;;;;;;;;;20.69;40.48;100214.16;103147;1294;72300;-79
2024/04/21 02:40:11;;;;;;;;;;;;;;;20.69;40.51;100212.38;102892;1294;62603;-79
2024/04/21 02:42:37;;;;;;;;;;;;;;;20.69;40.48;100213.27;103154;1289;62816;-78
2024/04/21 02:45:03;;;;;;;;;;;;;;;20.69;40.54;100211.86;103129;1294;62246;-78
2024/04/21 02:47:28;;;;;;;;;;;;;;;20.69;40.60;100211.86;103094;1294;62190;-80
2024/04/21 02:49:54;;;;;;;;;;;;;;;20.69;40.48;100212.23;103121;1289;72345;-79
2024/04/21 02:52:20;;;;;;;;;;;;;;;20.69;40.42;100213.48;103144;1289;63244;-78
2024/04/21 02:54:46;;;;;;;;;;;;;;;20.69;40.50;100215.27;103059;1294;62209;-79
2024/04/21 02:57:11;;;;;;;;;;;;;;;20.68;40.58;100216.53;103020;1289;62203;-78
2024/04/21 02:59:37;;;;;;;;;;;;;;;20.68;40.53;100216.36;103062;1290;62206;-79
2024/04/21 03:02:03;;;;;;;;;;;;;;;20.68;40.51;100218.33;103123;1289;63226;-79
2024/04/21 03:04:28;;;;;;;;;;;;;;;20.68;40.47;100220.99;102830;1294;75431;-79
2024/04/21 03:06:54;;;;;;;;;;;;;;;20.68;40.53;100217.09;103070;1294;62223;-79
2024/04/21 03:09:19;;;;;;;;;;;;;;;20.68;40.49;100215.13;102868;1289;63536;-78
2024/04/21 03:11:45;;;;;;;;;;;;;;;20.68;40.63;100213.69;103094;1289;62233;-80
2024/04/21 03:14:11;;;;;;;;;;;;;;;20.68;40.51;100215.48;103008;1294;62612;-80
2024/04/21 03:16:36;;;;;;;;;;;;;;;20.68;40.53;100218.18;103114;1289;63764;-79
2024/04/21 03:19:02;;;;;;;;;;;;;;;20.68;40.44;100219.61;102863;1294;62267;-78
2024/04/21 03:21:28;;;;;;;;;;;;;;;20.68;40.55;100226.75;102658;1295;63462;-80
2024/04/21 03:23:54;;;;;;;;;;;;;;;20.67;40.57;100231.63;102761;1295;62068;-79
2024/04/21 03:26:20;;;;;;;;;;;;;;;20.68;40.49;100231.06;103005;1294;62194;-78
2024/04/21 03:28:45;;;;;;;;;;;;;;;20.67;40.54;100225.91;103070;1294;62188;-78
2024/04/21 03:31:11;;;;;;;;;;;;;;;20.67;40.65;100228.58;103151;1289;62798;-80
2024/04/21 03:33:36;;;;;;;;;;;;;;;20.67;40.56;100231.09;102882;1294;62209;-79
2024/04/21 03:36:05;;;;;;;;;;;;;;;20.67;40.47;100226.80;103121;1289;62184;-78
2024/04/21 03:38:30;;;;;;;;;;;;;;;20.67;40.68;100223.41;103104;1294;75613;-79
2024/04/21 03:40:56;;;;;;;;;;;;;;;20.67;40.64;100225.39;103136;1289;62473;-79
2024/04/21 03:43:22;;;;;;;;;;;;;;;20.66;40.48;100225.61;103121;1294;62193;-78
2024/04/21 03:45:47;;;;;;;;;;;;;;;20.67;40.58;100225.78;103024;1289;62225;-79
2024/04/21 03:48:13;;;;;;;;;;;;;;;20.67;40.55;100227.23;103123;1294;63400;-79
2024/04/21 03:50:41;;;;;;;;;;;;;;;20.67;40.61;100224.14;103109;1289;63438;-79
2024/04/21 03:53:08;;;;;;;;;;;;;;;20.67;40.58;100225.95;103195;1290;62223;-79
2024/04/21 03:55:33;;;;;;;;;;;;;;;20.66;40.65;100224.90;103109;1294;62066;-79
2024/04/21 03:57:59;;;;;;;;;;;;;;;20.66;40.60;100229.90;103067;1295;62222;-80
2024/04/21 04:00:25;;;;;;;;;;;;;;;20.67;40.69;100226.65;103146;1293;62200;-79
2024/04/21 04:02:51;;;;;;;;;;;;;;;20.66;40.53;100224.53;103128;1295;62267;-80
2024/04/21 04:05:16;;;;;;;;;;;;;;;20.66;40.60;100230.10;103176;1289;63319;-79
2024/04/21 04:07:43;;;;;;;;;;;;;;;20.66;40.63;100226.71;103157;1292;62084;-79
2024/04/21 04:10:08;;;;;;;;;;;;;;;20.66;40.46;100226.85;103101;1295;62175;-79
2024/04/21 04:12:42;;;;;;;;;;;;;;;20.66;40.53;100228.15;103128;1289;62899;-78
2024/04/21 04:15:11;;;;;;;;;;;;;;;20.66;40.50;100228.85;103188;1289;62111;-79
2024/04/21 04:17:37;;;;;;;;;;;;;;;20.66;40.77;100226.38;103146;1295;62235;-78
2024/04/21 04:20:09;;;;;;;;;;;;;;;20.66;40.58;100227.77;103107;1294;62192;-79
2024/04/21 04:22:36;;;;;;;;;;;;;;;20.65;40.67;100223.90;103045;1294;75460;-78
2024/04/21 04:25:03;;;;;;;;;;;;;;;20.66;40.72;100226.34;103135;1292;63357;-79
2024/04/21 04:27:29;;;;;;;;;;;;;;;20.66;40.53;100224.61;103018;1289;63324;-78
2024/04/21 04:29:54;;;;;;;;;;;;;;;20.65;40.62;100222.15;103041;1289;62272;-78
2024/04/21 04:32:20;;;;;;;;;;;;;;;20.65;40.53;100218.37;103184;1289;62568;-78
2024/04/21 04:34:47;;;;;;;;;;;;;;;20.65;40.47;100221.05;102855;1289;63273;-79
2024/04/21 04:37:12;;;;;;;;;;;;;;;20.64;40.69;100214.31;103182;1289;62593;-78
2024/04/21 04:39:38;;;;;;;;;;;;;;;20.65;40.57;100220.59;103076;1295;62306;-78
2024/04/21 04:42:04;;;;;;;;;;;;;;;20.65;40.58;100218.22;103133;1294;72290;-78
2024/04/21 04:44:30;;;;;;;;;;;;;;;20.65;40.60;100219.83;103061;1294;62122;-78
2024/04/21 04:46:55;;;;;;;;;;;;;;;20.64;40.65;100220.42;103069;1290;62245;-78
2024/04/21 04:49:21;;;;;;;;;;;;;;;20.65;40.65;100222.17;103248;1294;62203;-79
2024/04/21 04:51:46;;;;;;;;;;;;;;;20.65;40.43;100225.73;103047;1289;63446;-78
2024/04/21 04:54:12;;;;;;;;;;;;;;;20.65;40.63;100224.45;103110;1291;62507;-78
2024/04/21 04:56:38;;;;;;;;;;;;;;;20.65;40.69;100231.44;102885;1290;75335;-78
2024/04/21 04:59:03;;;;;;;;;;;;;;;20.65;40.59;100230.17;103186;1295;62219;-78
2024/04/21 05:01:29;;;;;;;;;;;;;;;20.65;40.75;100226.77;103138;1294;62068;-79
2024/04/21 05:03:55;;;;;;;;;;;;;;;20.65;40.71;100229.47;103043;1289;62219;-79
2024/04/21 05:06:21;;;;;;;;;;;;;;;20.65;40.53;100228.57;103005;1295;63344;-79
2024/04/21 05:08:46;;;;;;;;;;;;;;;20.66;40.72;100230.64;103192;1294;62964;-79
2024/04/21 05:11:12;;;;;;;;;;;;;;;20.66;40.56;100232.21;103093;1289;62188;-79
2024/04/21 05:13:38;;;;;;;;;;;;;;;20.67;40.57;100232.55;103023;1295;62258;-79
2024/04/21 05:16:04;;;;;;;;;;;;;;;20.68;40.54;100232.85;103143;1289;62121;-79
2024/04/21 05:18:30;;;;;;;;;;;;;;;20.68;40.63;100234.08;102899;1300;62161;-79
2024/04/21 05:20:56;;;;;;;;;;;;;;;20.69;40.46;100234.93;103055;1290;63300;-78
2024/04/21 05:23:22;;;;;;;;;;;;;;;20.69;40.82;100235.09;103101;1295;62835;-79
2024/04/21 05:25:47;;;;;;;;;;;;;;;20.69;40.80;100234.55;103163;1295;62154;-78
2024/04/21 05:28:13;;;;;;;;;;;;;;;20.70;40.64;100238.25;103184;1290;72545;-78
2024/04/21 05:30:38;;;;;;;;;;;;;;;20.70;40.78;100235.21;103121;1295;62228;-79
2024/04/21 05:33:04;;;;;;;;;;;;;;;20.70;40.69;100236.98;102839;1295;62197;-78
2024/04/21 05:35:29;;;;;;;;;;;;;;;20.70;40.75;100237.86;102997;1289;63198;-80
2024/04/21 05:37:55;;;;;;;;;;;;;;;20.71;40.75;100235.69;103246;1294;62181;-79
2024/04/21 05:40:21;;;;;;;;;;;;;;;20.71;40.75;100237.27;102985;1294;71301;-79
2024/04/21 05:42:49;;;;;;;;;;;;;;;20.71;40.83;100234.95;103056;1295;63282;-79
2024/04/21 05:45:15;;;;;;;;;;;;;;;20.72;40.78;100232.35;103011;1294;62591;-79
2024/04/21 05:47:41;;;;;;;;;;;;;;;20.72;40.85;100235.20;103166;1290;62191;-79
2024/04/21 05:50:07;;;;;;;;;;;;;;;20.72;40.86;100232.89;103092;1303;62283;-78
2024/04/21 05:52:33;;;;;;;;;;;;;;;20.72;40.86;100234.30;102997;1295;62235;-78
2024/04/21 05:54:58;;;;;;;;;;;;;;;20.73;41.00;100233.55;103087;1295;63348;-79
2024/04/21 05:57:24;;;;;;;;;;;;;;;20.73;40.84;100235.84;103151;1290;62255;-79
2024/04/21 05:59:51;;;;;;;;;;;;;;;20.74;41.03;100239.01;103145;1294;62133;-78
2024/04/21 06:02:16;;;;;;;;;;;;;;;20.75;41.10;100238.04;103109;1295;63542;-78
2024/04/21 06:04:42;;;;;;;;;;;;;;;20.75;41.13;100240.67;103119;1293;63450;-78
2024/04/21 06:07:07;;;;;;;;;;;;;;;20.76;41.06;100242.04;103072;1295;62203;-78
2024/04/21 06:09:34;;;;;;;;;;;;;;;20.78;41.18;100246.56;103148;1294;62370;-78
2024/04/21 06:12:01;;;;;;;;;;;;;;;20.78;41.18;100247.27;103093;1289;62088;-81
2024/04/21 06:14:27;;;;;;;;;;;;;;;20.79;41.26;100248.79;103223;1294;72505;-79
2024/04/21 06:16:52;;;;;;;;;;;;;;;20.80;41.29;100246.92;103044;1289;62662;-78
2024/04/21 06:19:20;;;;;;;;;;;;;;;20.82;41.42;100241.95;103016;1304;63283;-79
2024/04/21 06:21:45;;;;;;;;;;;;;;;20.83;41.34;100242.63;102845;1290;62218;-78
2024/04/21 06:24:11;;;;;;;;;;;;;;;20.83;41.47;100243.79;102840;1294;62184;-78
2024/04/21 06:26:36;;;;;;;;;;;;;;;20.85;41.52;100244.19;103129;1295;63440;-80
2024/04/21 06:29:03;;;;;;;;;;;;;;;20.86;41.58;100247.70;103046;1295;62289;-78
2024/04/21 06:31:28;;;;;;;;;;;;;;;20.87;41.76;100246.03;103108;1294;62190;-78
2024/04/21 06:33:54;;;;;;;;;;;;;;;20.88;41.55;100248.63;103134;1294;62788;-78
2024/04/21 06:36:20;;;;;;;;;;;;;;;20.89;41.55;100251.63;102841;1295;63536;-79
2024/04/21 06:38:46;;;;;;;;;;;;;;;20.90;41.59;100253.63;103150;1294;62273;-79
2024/04/21 06:41:13;;;;;;;;;;;;;;;20.91;41.74;100253.20;103041;1289;62245;-78
2024/04/21 06:43:39;;;;;;;;;;;;;;;20.91;41.73;100249.61;102832;1295;62429;-78
2024/04/21 06:46:04;;;;;;;;;;;;;;;20.93;41.72;100253.42;102987;1294;63237;-78
2024/04/21 06:48:30;;;;;;;;;;;;;;;20.93;41.66;100258.94;103157;1295;62229;-79
2024/04/21 06:50:56;;;;;;;;;;;;;;;20.94;41.79;100260.33;103091;1294;75292;-80
2024/04/21 06:53:23;;;;;;;;;;;;;;;20.95;41.78;100262.06;103248;1290;62230;-78
2024/04/21 06:55:49;;;;;;;;;;;;;;;20.95;41.90;100260.97;103176;1294;63352;-78
2024/04/21 06:58:14;;;;;;;;;;;;;;;20.96;41.94;100262.73;102841;1296;62152;-79
2024/04/21 07:00:40;;;;;;;;;;;;;;;20.96;41.79;100261.23;103115;1295;62113;-78
2024/04/21 07:03:06;;;;;;;;;;;;;;;20.96;41.79;100262.82;103154;1290;62207;-78
2024/04/21 07:05:32;;;;;;;;;;;;;;;20.96;41.85;100265.33;103169;1289;62701;-78
2024/04/21 07:07:58;;;;;;;;;;;;;;;20.96;42.00;100267.68;103204;1291;62216;-78
2024/04/21 07:10:23;;;;;;;;;;;;;;;20.95;41.91;100266.86;103205;1298;63312;-78
2024/04/21 07:12:49;;;;;;;;;;;;;;;20.96;41.95;100263.80;103093;1294;62174;-78
2024/04/21 07:15:14;;;;;;;;;;;;;;;20.95;41.90;100269.90;103083;1303;62197;-79
2024/04/21 07:17:40;;;;;;;;;;;;;;;20.95;41.96;100274.58;103065;1291;63429;-79
2024/04/21 07:20:06;;;;;;;;;;;;;;;20.95;42.02;100276.90;102985;1289;62044;-79
2024/04/21 07:22:31;;;;;;;;;;;;;;;20.95;41.90;100272.80;103133;1295;63248;-80
2024/04/21 07:24:57;;;;;;;;;;;;;;;20.95;41.99;100274.77;102796;1294;62120;-79
2024/04/21 07:27:22;;;;;;;;;;;;;;;20.95;42.05;100271.73;103171;1289;62315;-79
2024/04/21 07:29:48;;;;;;;;;;;;;;;20.95;42.14;100277.27;103044;1289;62110;-79
2024/04/21 07:32:15;;;;;;;;;;;;;;;20.95;42.21;100277.98;103028;1294;64095;-78
2024/04/21 07:34:40;;;;;;;;;;;;;;;20.95;42.05;100274.58;103005;1289;62925;-78
2024/04/21 07:37:06;;;;;;;;;;;;;;;20.94;42.01;100278.40;103166;1294;62148;-78
2024/04/21 07:39:32;;;;;;;;;;;;;;;20.94;42.16;100278.92;103058;1289;63384;-78
2024/04/21 07:41:58;;;;;;;;;;;;;;;20.93;42.22;100280.20;102899;1289;63245;-78
2024/04/21 07:44:23;;;;;;;;;;;;;;;20.93;42.16;100279.84;103188;1294;62211;-79
2024/04/21 07:46:49;;;;;;;;;;;;;;;20.93;42.21;100283.62;103167;1289;72625;-78
2024/04/21 07:49:14;;;;;;;;;;;;;;;20.93;42.20;100285.61;103113;1294;63321;-79
2024/04/21 07:51:40;;;;;;;;;;;;;;;20.93;42.20;100287.24;103244;1289;62545;-78
2024/04/21 07:54:06;;;;;;;;;;;;;;;20.92;42.24;100288.15;103035;1294;62239;-78
2024/04/21 07:56:32;;;;;;;;;;;;;;;20.92;42.14;100287.47;102983;1289;62097;-80
2024/04/21 07:58:57;;;;;;;;;;;;;;;20.92;42.24;100287.98;103170;1289;62325;-78
2024/04/21 08:01:23;;;;;;;;;;;;;;;20.92;42.32;100285.67;102833;1295;62280;-78
2024/04/21 08:03:49;;;;;;;;;;;;;;;20.92;42.28;100283.90;103064;1294;62201;-79
2024/04/21 08:06:15;;;;;;;;;;;;;;;20.92;42.05;100284.06;102990;1289;63750;-78
2024/04/21 08:08:40;;;;;;;;;;;;;;;20.92;42.25;100279.80;103203;1289;62111;-79
2024/04/21 08:11:06;;;;;;;;;;;;;;;20.92;42.27;100285.34;103099;1294;62218;-78
2024/04/21 08:13:32;;;;;;;;;;;;;;;20.92;42.39;100281.78;103056;1289;63898;-78
2024/04/21 08:15:58;;;;;;;;;;;;;;;20.92;42.27;100282.65;102862;1294;62263;-79
2024/04/21 08:18:24;;;;;;;;;;;;;;;20.91;42.21;100287.34;103162;1289;63203;-79
2024/04/21 08:20:50;;;;;;;;;;;;;;;20.92;42.28;100289.83;103121;1289;62707;-78
2024/04/21 08:23:24;;;;;;;;;;;;;;;20.92;42.29;100288.37;103037;1295;62194;-78
2024/04/21 08:25:50;;;;;;;;;;;;;;;20.93;42.37;100285.42;103092;1289;62107;-78
2024/04/21 08:28:18;;;;;;;;;;;;;;;20.93;42.31;100286.34;103025;1289;62179;-78
2024/04/21 08:30:44;;;;;;;;;;;;;;;20.93;42.25;100283.63;103027;1294;62266;-77
2024/04/21 08:33:09;;;;;;;;;;;;;;;20.94;42.38;100286.29;103136;1295;62423;-78
2024/04/21 08:35:36;;;;;;;;;;;;;;;20.93;42.22;100284.13;102814;1297;62405;-78
2024/04/21 08:38:01;;;;;;;;;;;;;;;20.94;42.30;100284.80;102873;1293;62286;-79
2024/04/21 08:40:27;;;;;;;;;;;;;;;20.94;42.32;100289.45;102846;1292;62671;-78
2024/04/21 08:42:54;;;;;;;;;;;;;;;20.94;42.28;100288.73;102747;1297;72566;-78
2024/04/21 08:45:20;;;;;;;;;;;;;;;20.95;42.41;100283.51;102896;1293;75472;-79
2024/04/21 08:47:46;;;;;;;;;;;;;;;20.95;42.38;100281.56;102874;1294;62227;-78
2024/04/21 08:50:13;;;;;;;;;;;;;;;20.96;42.28;100286.14;102800;1297;62200;-78
2024/04/21 08:52:38;;;;;;;;;;;;;;;20.96;42.23;100286.48;102884;1291;62204;-79
2024/04/21 08:55:04;;;;;;;;;;;;;;;20.96;42.43;100286.99;102806;1292;62867;-79
2024/04/21 08:57:30;;;;;;;;;;;;;;;20.97;42.38;100287.15;102702;1297;62348;-79
2024/04/21 08:59:57;;;;;;;;;;;;;;;20.96;42.26;100284.12;102839;1292;62309;-79
2024/04/21 09:02:23;;;;;;;;;;;;;;;20.97;42.41;100280.85;102987;1292;62177;-78
2024/04/21 09:04:49;;;;;;;;;;;;;;;20.97;42.34;100282.62;102789;1291;63274;-79
2024/04/21 09:07:15;;;;;;;;;;;;;;;20.97;42.39;100286.22;102949;1294;62203;-79
2024/04/21 09:09:44;;;;;;;;;;;;;;;20.98;42.35;100285.09;103031;1289;62190;-82
2024/04/21 09:12:10;;;;;;;;;;;;;;;20.97;42.36;100283.67;103106;1289;62171;-79
2024/04/21 09:14:45;;;;;;;;;;;;;;;20.97;42.34;100285.66;102874;1289;63198;-79
2024/04/21 09:17:11;;;;;;;;;;;;;;;20.97;42.41;100277.23;103104;1294;75089;-82
2024/04/21 09:19:36;;;;;;;;;;;;;;;20.98;42.34;100282.05;103132;1289;62167;-78
2024/04/21 09:22:02;;;;;;;;;;;;;;;20.98;42.25;100286.70;103111;1289;62226;-79
2024/04/21 09:24:28;;;;;;;;;;;;;;;20.98;42.23;100289.16;103125;1289;62130;-79
2024/04/21 09:26:53;;;;;;;;;;;;;;;20.98;42.24;100284.00;103071;1294;62277;-79
2024/04/21 09:29:19;;;;;;;;;;;;;;;20.98;42.35;100285.07;103162;1289;62290;-79
2024/04/21 09:31:45;;;;;;;;;;;;;;;20.98;42.29;100277.38;103079;1295;63478;-79
2024/04/21 09:34:14;;;;;;;;;;;;;;;20.98;42.13;100272.52;103053;1294;62214;-80
2024/04/21 09:36:40;;;;;;;;;;;;;;;20.99;42.17;100277.13;103048;1289;72653;-80
2024/04/21 09:39:06;;;;;;;;;;;;;;;20.98;42.21;100273.41;103021;1289;62902;-78
2024/04/21 09:41:32;;;;;;;;;;;;;;;20.99;42.20;100268.73;103168;1289;63337;-78
2024/04/21 09:43:58;;;;;;;;;;;;;;;20.99;42.12;100268.00;103038;1289;63371;-77
2024/04/21 09:46:27;;;;;;;;;;;;;;;21.00;42.14;100268.30;102927;1289;62162;-78
2024/04/21 09:48:52;;;;;;;;;;;;;;;21.00;42.13;100265.23;103010;1291;75253;-78
2024/04/21 09:51:20;;;;;;;;;;;;;;;21.00;42.11;100265.77;103113;1289;62197;-79
2024/04/21 09:53:47;;;;;;;;;;;;;;;20.99;42.12;100267.21;103106;1292;63213;-79
2024/04/21 09:56:19;;;;;;;;;;;;;;;21.00;42.10;100270.04;103084;1289;63343;-79
2024/04/21 09:58:49;;;;;;;;;;;;;;;21.00;42.04;100269.52;103165;1289;75724;-78
2024/04/21 10:01:17;;;;;;;;;;;;;;;21.01;42.09;100267.88;103094;1289;62206;-79
2024/04/21 10:03:43;;;;;;;;;;;;;;;21.00;42.11;100267.52;103164;1289;62200;-79
2024/04/21 10:06:09;;;;;;;;;;;;;;;21.01;42.12;100262.86;102913;1289;62244;-79
2024/04/21 10:08:35;;;;;;;;;;;;;;;21.01;42.05;100259.43;103121;1289;63294;-78
2024/04/21 10:11:00;;;;;;;;;;;;;;;21.01;42.10;100259.60;103097;1294;62206;-78
2024/04/21 10:13:26;;;;;;;;;;;;;;;21.01;42.09;100258.89;103210;1289;62244;-79
2024/04/21 10:15:52;;;;;;;;;;;;;;;21.01;42.02;100261.41;103093;1289;63454;-78
2024/04/21 10:18:20;;;;;;;;;;;;;;;21.01;41.96;100258.16;103022;1289;73491;-77
2024/04/21 10:20:45;;;;;;;;;;;;;;;21.01;42.01;100260.30;103037;1294;75171;-79
2024/04/21 10:23:11;;;;;;;;;;;;;;;21.01;41.92;100258.31;103082;1289;62184;-78
2024/04/21 10:25:37;;;;;;;;;;;;;;;21.02;41.89;100254.90;103111;1293;62197;-79
2024/04/21 10:28:06;;;;;;;;;;;;;;;21.01;42.01;100256.70;103018;1289;62226;-78
2024/04/21 10:30:32;;;;;;;;;;;;;;;21.01;41.79;100253.33;103084;1289;75285;-78
2024/04/21 10:32:59;;;;;;;;;;;;;;;21.01;41.95;100247.77;102851;1293;62241;-79
2024/04/21 10:35:24;;;;;;;;;;;;;;;21.01;41.70;100243.53;103082;1289;62203;-79
2024/04/21 10:37:53;;;;;;;;;;;;;;;21.01;41.84;100242.98;103081;1293;62254;-79
2024/04/21 10:40:18;;;;;;;;;;;;;;;21.00;41.83;100238.38;103137;1289;75030;-79
2024/04/21 10:42:45;;;;;;;;;;;;;;;21.00;41.80;100239.27;102829;1294;62261;-78
2024/04/21 10:45:10;;;;;;;;;;;;;;;21.00;41.81;100245.91;103094;1289;62313;-79
2024/04/21 10:47:36;;;;;;;;;;;;;;;21.00;41.81;100251.65;103057;1293;62140;-78
2024/04/21 10:50:01;;;;;;;;;;;;;;;20.99;41.76;100254.75;103014;1289;62159;-78
2024/04/21 10:52:27;;;;;;;;;;;;;;;20.98;41.76;100255.34;103027;1290;63398;-79
2024/04/21 10:54:53;;;;;;;;;;;;;;;20.98;41.80;100257.84;103187;1293;62120;-79
2024/04/21 10:57:19;;;;;;;;;;;;;;;20.98;41.82;100254.83;103098;1289;62245;-78
2024/04/21 10:59:44;;;;;;;;;;;;;;;20.98;41.78;100255.23;103035;1289;63692;-79
2024/04/21 11:02:10;;;;;;;;;;;;;;;20.97;41.86;100256.52;103104;1289;63266;-78
2024/04/21 11:04:36;;;;;;;;;;;;;;;20.96;41.75;100257.82;102996;1294;62200;-78
2024/04/21 11:07:01;;;;;;;;;;;;;;;20.97;41.80;100259.44;103094;1294;62162;-81
2024/04/21 11:09:27;;;;;;;;;;;;;;;20.96;41.86;100261.63;102855;1289;63237;-79
2024/04/21 11:11:52;;;;;;;;;;;;;;;20.95;41.76;100259.90;102946;1294;62191;-78
2024/04/21 11:14:18;;;;;;;;;;;;;;;20.95;41.80;100255.81;102989;1289;62161;-80
2024/04/21 11:16:51;;;;;;;;;;;;;;;20.94;41.80;100256.73;103102;1295;62294;-78
2024/04/21 11:19:17;;;;;;;;;;;;;;;20.94;41.76;100249.38;103114;1289;62456;-79
2024/04/21 11:21:42;;;;;;;;;;;;;;;20.94;41.74;100249.06;103133;1289;63239;-77
2024/04/21 11:24:08;;;;;;;;;;;;;;;20.94;41.75;100247.26;103155;1292;62225;-79
2024/04/21 11:26:34;;;;;;;;;;;;;;;20.94;41.77;100245.48;102864;1289;63708;-79
2024/04/21 11:29:00;;;;;;;;;;;;;;;20.93;41.82;100246.40;103134;1289;63355;-79
2024/04/21 11:31:26;;;;;;;;;;;;;;;20.94;41.73;100245.84;102879;1292;62200;-79
2024/04/21 11:33:59;;;;;;;;;;;;;;;20.94;41.69;100243.33;103115;1290;72243;-78
2024/04/21 11:36:25;;;;;;;;;;;;;;;20.94;41.85;100241.38;103128;1289;75329;-78
2024/04/21 11:38:51;;;;;;;;;;;;;;;20.93;41.84;100241.56;103227;1289;62248;-78
2024/04/21 11:41:16;;;;;;;;;;;;;;;20.93;41.74;100240.84;103077;1289;62200;-78
2024/04/21 11:43:45;;;;;;;;;;;;;;;20.93;41.78;100238.91;103263;1289;63386;-79
2024/04/21 11:46:10;;;;;;;;;;;;;;;20.94;41.76;100236.56;103188;1289;62213;-79
2024/04/21 11:48:36;;;;;;;;;;;;;;;20.94;41.82;100235.83;103543;1291;62214;-77
2024/04/21 11:51:03;;;;;;;;;;;;;;;20.93;41.83;100229.95;103370;1289;62067;-78
2024/04/21 11:53:29;;;;;;;;;;;;;;;20.93;41.78;100227.61;103125;1289;62193;-79
2024/04/21 11:55:54;;;;;;;;;;;;;;;20.94;41.80;100223.99;102858;1289;63416;-78
2024/04/21 11:58:20;;;;;;;;;;;;;;;20.95;41.80;100229.31;103026;1294;63433;-78
2024/04/21 12:00:45;;;;;;;;;;;;;;;20.95;41.78;100223.21;103107;1294;62178;-78
2024/04/21 12:03:11;;;;;;;;;;;;;;;20.95;41.75;100220.39;103038;1289;62204;-79
2024/04/21 12:05:36;;;;;;;;;;;;;;;20.95;41.76;100219.42;103099;1289;63499;-79
2024/04/21 12:08:02;;;;;;;;;;;;;;;20.95;41.78;100212.85;103068;1289;63278;-79
2024/04/21 12:10:31;;;;;;;;;;;;;;;20.96;41.77;100213.90;102970;1295;62219;-78
2024/04/21 12:12:56;;;;;;;;;;;;;;;20.96;41.64;100217.80;102789;1292;62364;-79
2024/04/21 12:15:22;;;;;;;;;;;;;;;20.96;41.69;100211.86;102779;1292;62370;-79
2024/04/21 12:17:47;;;;;;;;;;;;;;;20.96;41.83;100211.70;102885;1297;64817;-79
2024/04/21 12:20:14;;;;;;;;;;;;;;;20.96;41.82;100207.38;103001;1292;62306;-79